Time;durP1;ratioP1;P1;durP2;ratioP2;P2;SDS_P1;SDS_P2;PMS_P1;PMS_P2;Temp;Humidity;BMP_temperature;BMP_pressure;BME280_temperature;BME280_humidity;BME280_pressure;Samples;Min_cycle;Max_cycle;Signal;HPM_P1;HPM_P2
2022/06/05 00:01:37;;;;;;;3.53;2.73;;;17.80;93.30;;;;;;5040850;28;20197;-68
2022/06/05 00:04:13;;;;;;;3.40;2.70;;;17.80;93.40;;;;;;5061769;28;20193;-68
2022/06/05 00:07:03;;;;;;;2.97;2.70;;;17.80;93.40;;;;;;5061364;28;20193;-68
2022/06/05 00:09:59;;;;;;;2.90;2.60;;;17.80;93.40;;;;;;5068931;28;20231;-68
2022/06/05 00:12:45;;;;;;;4.57;2.87;;;17.80;93.30;;;;;;5065857;28;20265;-69
2022/06/05 00:15:10;;;;;;;4.33;2.83;;;17.70;93.30;;;;;;5064159;28;20237;-69
2022/06/05 00:17:36;;;;;;;3.53;2.90;;;17.70;93.30;;;;;;5038942;28;20195;-68
2022/06/05 00:20:04;;;;;;;7.73;3.10;;;17.70;93.30;;;;;;5057459;28;20189;-69
2022/06/05 00:22:30;;;;;;;3.23;2.93;;;17.70;93.30;;;;;;5046129;28;20198;-69
2022/06/05 00:24:56;;;;;;;3.47;2.83;;;17.70;93.30;;;;;;5068093;28;20289;-70
2022/06/05 00:27:58;;;;;;;6.77;3.33;;;17.60;93.20;;;;;;5063523;28;20387;-70
2022/06/05 00:30:54;;;;;;;4.20;3.73;;;17.50;93.20;;;;;;5077130;28;20197;-70
2022/06/05 00:33:36;;;;;;;3.43;3.03;;;17.50;93.20;;;;;;5067962;28;20273;-70
2022/06/05 00:36:13;;;;;;;5.97;3.40;;;17.50;93.10;;;;;;5071588;28;20189;-70
2022/06/05 00:39:04;;;;;;;4.93;4.23;;;17.50;93.20;;;;;;5073138;28;20189;-70
2022/06/05 00:41:45;;;;;;;6.90;3.80;;;17.40;93.20;;;;;;5071865;28;20186;-68
2022/06/05 00:44:16;;;;;;;7.13;3.73;;;17.40;93.20;;;;;;5060997;28;20316;-68
2022/06/05 00:46:42;;;;;;;3.93;3.57;;;17.40;93.20;;;;;;5060521;28;20190;-68
2022/06/05 00:49:10;;;;;;;4.20;3.30;;;17.30;93.30;;;;;;5045746;28;20200;-68
2022/06/05 00:51:36;;;;;;;4.67;3.07;;;17.40;93.30;;;;;;5053404;28;20195;-68
2022/06/05 00:54:02;;;;;;;4.90;3.00;;;17.40;93.40;;;;;;5062908;28;20238;-68
2022/06/05 00:56:28;;;;;;;4.90;2.90;;;17.30;93.30;;;;;;5065331;28;20189;-68
2022/06/05 00:58:54;;;;;;;3.53;3.23;;;17.30;93.30;;;;;;5064333;28;20194;-68
2022/06/05 01:01:21;;;;;;;5.33;3.27;;;17.30;93.30;;;;;;5055744;28;20186;-68
2022/06/05 01:03:47;;;;;;;4.67;2.77;;;17.30;93.30;;;;;;5066364;28;20186;-69
2022/06/05 01:06:13;;;;;;;5.37;3.23;;;17.30;93.20;;;;;;5064901;28;20186;-69
2022/06/05 01:08:39;;;;;;;3.80;3.00;;;17.30;93.20;;;;;;5072215;28;20331;-69
2022/06/05 01:11:06;;;;;;;4.33;3.27;;;17.30;93.20;;;;;;5054227;28;20198;-69
2022/06/05 01:13:50;;;;;;;7.33;3.77;;;17.30;93.20;;;;;;5069718;28;20236;-68
2022/06/05 01:16:33;;;;;;;5.03;3.40;;;17.20;93.10;;;;;;5057464;28;20178;-69
2022/06/05 01:19:30;;;;;;;4.97;3.70;;;17.30;93.10;;;;;;5053923;28;20174;-69
2022/06/05 01:22:24;;;;;;;4.50;4.10;;;17.20;93.30;;;;;;5062543;28;20234;-68
2022/06/05 01:25:02;;;;;;;4.07;3.67;;;17.20;93.40;;;;;;5047370;28;20199;-69
2022/06/05 01:27:31;;;;;;;5.40;4.23;;;17.20;93.40;;;;;;5066317;28;20263;-69
2022/06/05 01:30:05;;;;;;;9.53;3.70;;;17.10;93.40;;;;;;5061750;28;20206;-69
2022/06/05 01:32:46;;;;;;;8.30;4.07;;;17.10;93.30;;;;;;5059785;28;20201;-69
2022/06/05 01:35:24;;;;;;;5.50;3.80;;;17.10;93.40;;;;;;5064551;28;20256;-69
2022/06/05 01:37:59;;;;;;;4.27;3.57;;;17.10;93.40;;;;;;5058991;28;20618;-69
2022/06/05 01:40:32;;;;;;;9.47;4.83;;;17.10;93.40;;;;;;5059807;28;20185;-69
2022/06/05 01:43:04;;;;;;;12.30;4.93;;;17.10;93.30;;;;;;5069515;28;20234;-69
2022/06/05 01:45:44;;;;;;;11.43;4.93;;;17.00;93.30;;;;;;5077915;28;20189;-68
2022/06/05 01:48:22;;;;;;;6.03;4.57;;;17.10;93.30;;;;;;5078023;28;20205;-68
2022/06/05 01:50:59;;;;;;;16.10;5.50;;;17.00;93.40;;;;;;5068700;28;20182;-68
2022/06/05 01:53:40;;;;;;;8.90;4.97;;;17.00;93.30;;;;;;5072114;28;20217;-68
2022/06/05 01:56:29;;;;;;;8.53;5.67;;;17.00;93.40;;;;;;5070519;28;20182;-68
2022/06/05 01:59:02;;;;;;;6.30;4.80;;;17.00;93.40;;;;;;5081210;28;20182;-68
2022/06/05 02:01:33;;;;;;;9.90;5.20;;;17.00;93.50;;;;;;5058452;28;20316;-68
2022/06/05 02:04:14;;;;;;;14.43;5.60;;;17.00;93.70;;;;;;5072258;28;20236;-68
2022/06/05 02:06:46;;;;;;;6.40;4.67;;;17.00;93.60;;;;;;5068929;28;20331;-68
2022/06/05 02:09:55;;;;;;;8.03;5.23;;;17.00;93.50;;;;;;5072336;28;20275;-68
2022/06/05 02:12:22;;;;;;;5.70;4.93;;;17.00;93.60;;;;;;4990829;28;20200;-68
2022/06/05 02:14:47;;;;;;;5.50;4.93;;;17.00;93.60;;;;;;5015306;28;20191;-68
2022/06/05 02:17:14;;;;;;;7.13;5.93;;;17.00;93.60;;;;;;5066437;28;20203;-69
2022/06/05 02:19:40;;;;;;;8.07;5.20;;;17.00;93.60;;;;;;5060651;28;20281;-68
2022/06/05 02:22:12;;;;;;;8.00;5.57;;;17.00;93.60;;;;;;5074191;28;20196;-68
2022/06/05 02:24:38;;;;;;;7.53;5.43;;;17.00;93.60;;;;;;5062684;28;20182;-68
2022/06/05 02:27:06;;;;;;;6.03;5.43;;;16.90;93.60;;;;;;5049095;28;20182;-68
2022/06/05 02:29:32;;;;;;;8.70;6.20;;;17.00;93.60;;;;;;5068246;28;20187;-68
2022/06/05 02:32:12;;;;;;;7.57;5.87;;;16.90;93.70;;;;;;5065908;28;20193;-68
2022/06/05 02:35:05;;;;;;;7.10;6.37;;;17.00;93.70;;;;;;5066653;28;20193;-69
2022/06/05 02:37:44;;;;;;;7.07;6.17;;;16.90;93.70;;;;;;5057174;28;20186;-69
2022/06/05 02:40:45;;;;;;;7.27;6.57;;;17.00;93.80;;;;;;5066654;28;20191;-69
2022/06/05 02:43:19;;;;;;;9.90;6.40;;;17.00;93.70;;;;;;5066255;28;20233;-68
2022/06/05 02:45:55;;;;;;;7.40;6.37;;;16.90;93.60;;;;;;5078205;28;20216;-68
2022/06/05 02:48:32;;;;;;;7.70;6.97;;;16.90;93.60;;;;;;5069464;28;20186;-68
2022/06/05 02:51:15;;;;;;;7.93;6.27;;;16.90;93.60;;;;;;5061156;28;20187;-68
2022/06/05 02:53:49;;;;;;;9.53;7.27;;;16.90;93.60;;;;;;5074425;28;20210;-68
2022/06/05 02:56:15;;;;;;;8.00;6.33;;;16.90;93.70;;;;;;5071791;28;20276;-68
2022/06/05 02:58:41;;;;;;;8.53;7.17;;;16.90;93.70;;;;;;5057807;28;20213;-68
2022/06/05 03:03:51;;;;;;;8.00;6.33;;;16.90;93.80;;;;;;5072193;28;20255;-69
2022/06/05 03:06:17;;;;;;;7.70;6.33;;;16.80;93.80;;;;;;5057095;28;20198;-69
2022/06/05 03:08:42;;;;;;;6.60;6.00;;;16.90;93.80;;;;;;5057375;28;20189;-69
2022/06/05 03:11:08;;;;;;;17.43;6.73;;;16.90;93.80;;;;;;5041283;28;20186;-69
2022/06/05 03:13:34;;;;;;;10.47;6.53;;;16.90;93.70;;;;;;5056338;28;20213;-68
2022/06/05 03:15:59;;;;;;;9.43;6.03;;;16.80;93.70;;;;;;5054198;28;20201;-68
2022/06/05 03:18:25;;;;;;;8.10;7.17;;;16.80;93.70;;;;;;5034906;28;20186;-68
2022/06/05 03:20:58;;;;;;;10.57;7.30;;;16.80;93.70;;;;;;5048719;28;20282;-68
2022/06/05 03:23:26;;;;;;;7.93;7.13;;;16.80;93.70;;;;;;5062055;28;20193;-68
2022/06/05 03:25:52;;;;;;;8.97;7.50;;;16.80;93.70;;;;;;5062779;28;20261;-69
2022/06/05 03:28:18;;;;;;;9.83;8.27;;;16.80;93.90;;;;;;5063758;28;20307;-68
2022/06/05 03:30:44;;;;;;;7.87;7.10;;;16.80;93.80;;;;;;5057929;28;20220;-69
2022/06/05 03:33:11;;;;;;;7.53;6.70;;;16.80;93.90;;;;;;5063065;28;20231;-68
2022/06/05 03:35:39;;;;;;;8.80;6.90;;;16.80;93.80;;;;;;5069283;28;20181;-67
2022/06/05 03:38:05;;;;;;;7.67;6.83;;;16.80;93.80;;;;;;5062404;28;20183;-67
2022/06/05 03:40:32;;;;;;;7.57;6.47;;;16.80;93.90;;;;;;5057756;28;20191;-68
2022/06/05 03:42:58;;;;;;;20.47;7.77;;;16.80;93.90;;;;;;5063429;28;20229;-68
2022/06/05 03:45:24;;;;;;;7.33;6.17;;;16.80;93.90;;;;;;5043300;28;20191;-68
2022/06/05 03:47:50;;;;;;;7.77;6.33;;;16.80;93.90;;;;;;5076463;28;20186;-68
2022/06/05 03:50:17;;;;;;;8.40;6.93;;;16.80;94.10;;;;;;5039868;28;20190;-68
2022/06/05 03:52:43;;;;;;;7.17;6.47;;;16.80;94.00;;;;;;5052629;28;20629;-66
2022/06/05 03:55:12;;;;;;;7.80;6.67;;;16.80;94.10;;;;;;5058777;28;20196;-66
2022/06/05 03:57:38;;;;;;;10.23;6.83;;;16.80;94.10;;;;;;5056454;28;20182;-67
2022/06/05 04:00:05;;;;;;;7.57;6.87;;;16.80;94.00;;;;;;5050831;28;20255;-66
2022/06/05 04:02:31;;;;;;;7.13;6.43;;;16.80;94.00;;;;;;5053562;28;20214;-67
2022/06/05 04:04:59;;;;;;;12.67;6.60;;;16.80;93.90;;;;;;5065317;28;20189;-66
2022/06/05 04:07:25;;;;;;;6.23;5.73;;;16.80;94.00;;;;;;5061315;28;20232;-67
2022/06/05 04:09:50;;;;;;;8.33;6.60;;;16.80;94.00;;;;;;5043171;28;20202;-66
2022/06/05 04:12:16;;;;;;;8.93;6.50;;;16.80;94.00;;;;;;5042003;28;20201;-67
2022/06/05 04:14:41;;;;;;;8.13;6.60;;;16.80;94.00;;;;;;5039941;28;20192;-66
2022/06/05 04:17:09;;;;;;;7.70;6.40;;;16.80;94.10;;;;;;5054241;28;20269;-66
2022/06/05 04:19:35;;;;;;;8.70;6.53;;;16.80;94.10;;;;;;5079292;28;20183;-66
2022/06/05 04:22:00;;;;;;;9.67;6.20;;;16.80;94.10;;;;;;5046683;28;20264;-66
2022/06/05 04:24:26;;;;;;;7.00;6.40;;;16.90;94.20;;;;;;5038777;28;20194;-66
2022/06/05 04:26:52;;;;;;;7.00;6.30;;;16.90;94.30;;;;;;5040893;28;20239;-66
2022/06/05 04:29:17;;;;;;;9.83;8.07;;;16.90;94.30;;;;;;5050456;28;20189;-67
2022/06/05 04:31:46;;;;;;;8.27;7.40;;;17.00;94.40;;;;;;5051089;28;20191;-66
2022/06/05 04:34:14;;;;;;;8.17;7.33;;;17.00;94.40;;;;;;5059607;28;20218;-67
2022/06/05 04:36:39;;;;;;;8.50;7.70;;;17.00;94.40;;;;;;5060461;28;20191;-66
2022/06/05 04:39:05;;;;;;;10.93;7.13;;;17.00;94.40;;;;;;5058784;28;20197;-66
2022/06/05 04:41:31;;;;;;;9.67;7.77;;;17.00;94.40;;;;;;5064415;28;20273;-66
2022/06/05 04:43:57;;;;;;;7.60;6.20;;;17.00;94.40;;;;;;5060210;28;20264;-66
2022/06/05 04:46:25;;;;;;;8.37;7.50;;;17.00;94.40;;;;;;5053363;28;20301;-65
2022/06/05 04:48:51;;;;;;;9.37;7.50;;;17.00;94.40;;;;;;5076751;28;20226;-65
2022/06/05 04:51:18;;;;;;;8.10;7.30;;;17.10;94.40;;;;;;5053707;28;20194;-66
2022/06/05 04:53:45;;;;;;;9.03;8.23;;;17.10;94.40;;;;;;5056584;28;20206;-65
2022/06/05 04:56:14;;;;;;;8.63;7.80;;;17.10;94.50;;;;;;5056710;28;20682;-65
2022/06/05 04:58:40;;;;;;;13.30;9.07;;;17.10;94.50;;;;;;5069274;28;20185;-63
2022/06/05 05:01:11;;;;;;;7.93;7.23;;;17.10;94.50;;;;;;5072562;28;20190;-64
2022/06/05 05:03:36;;;;;;;8.83;8.00;;;17.10;94.50;;;;;;5063167;28;20191;-64
2022/06/05 05:06:02;;;;;;;9.13;8.33;;;17.20;94.60;;;;;;5049037;28;20186;-64
2022/06/05 05:08:28;;;;;;;11.17;9.00;;;17.20;94.60;;;;;;5052746;28;20217;-64
2022/06/05 05:10:53;;;;;;;10.13;8.97;;;17.20;94.70;;;;;;5051670;28;20212;-64
2022/06/05 05:13:19;;;;;;;11.87;9.47;;;17.20;94.70;;;;;;5046357;28;20211;-64
2022/06/05 05:15:49;;;;;;;10.77;8.87;;;17.30;94.80;;;;;;5070142;28;20264;-64
2022/06/05 05:18:14;;;;;;;9.87;8.90;;;17.30;94.80;;;;;;5067988;28;20213;-65
2022/06/05 05:20:40;;;;;;;9.17;8.33;;;17.30;94.80;;;;;;5039333;28;20185;-64
2022/06/05 05:23:07;;;;;;;9.60;8.70;;;17.30;94.80;;;;;;5052835;28;20222;-65
2022/06/05 05:25:33;;;;;;;9.93;9.03;;;17.40;94.90;;;;;;5038519;28;20186;-65
2022/06/05 05:27:59;;;;;;;9.20;8.40;;;17.40;94.90;;;;;;5063908;28;20182;-65
2022/06/05 05:30:25;;;;;;;10.87;9.87;;;17.40;94.90;;;;;;5051791;28;20201;-65
2022/06/05 05:32:51;;;;;;;10.30;9.30;;;17.50;95.00;;;;;;5067377;28;20232;-65
2022/06/05 05:35:18;;;;;;;10.97;9.97;;;17.50;95.00;;;;;;5053141;28;20224;-63
2022/06/05 05:37:44;;;;;;;10.03;9.03;;;17.60;95.00;;;;;;5064252;28;20182;-64
2022/06/05 05:42:55;;;;;;;10.40;9.40;;;17.60;95.10;;;;;;5067370;28;20241;-64
2022/06/05 05:45:20;;;;;;;10.40;9.30;;;17.70;95.10;;;;;;5051824;28;20190;-64
2022/06/05 05:47:46;;;;;;;11.23;9.90;;;17.70;95.10;;;;;;5043257;28;20197;-64
2022/06/05 05:50:15;;;;;;;11.30;10.20;;;17.80;95.10;;;;;;5059036;28;20272;-64
2022/06/05 05:52:42;;;;;;;10.77;9.77;;;17.80;95.10;;;;;;5077070;28;20237;-64
2022/06/05 05:55:14;;;;;;;17.00;11.23;;;17.80;95.10;;;;;;5062919;28;20190;-63
2022/06/05 05:57:40;;;;;;;10.67;9.67;;;17.80;95.10;;;;;;5071487;28;20244;-63
2022/06/05 06:00:09;;;;;;;11.70;10.70;;;17.90;95.20;;;;;;5043598;28;20186;-64
2022/06/05 06:02:36;;;;;;;13.00;11.70;;;17.90;95.20;;;;;;5067755;28;20231;-64
2022/06/05 06:05:03;;;;;;;12.67;11.37;;;17.90;95.30;;;;;;5055672;28;20230;-64
2022/06/05 06:07:28;;;;;;;13.73;12.30;;;18.00;95.40;;;;;;5057222;28;20217;-64
2022/06/05 06:09:55;;;;;;;13.27;12.07;;;18.00;95.40;;;;;;5050909;28;20222;-64
2022/06/05 06:12:20;;;;;;;13.80;12.43;;;18.10;95.50;;;;;;5065157;28;20272;-64
2022/06/05 06:14:46;;;;;;;11.83;10.83;;;18.10;95.50;;;;;;5052858;28;20197;-65
2022/06/05 06:17:12;;;;;;;11.93;10.73;;;18.20;95.60;;;;;;5041711;28;20257;-65
2022/06/05 06:19:37;;;;;;;11.07;10.03;;;18.20;95.60;;;;;;5051275;28;20193;-65
2022/06/05 06:22:04;;;;;;;12.13;11.00;;;18.20;95.60;;;;;;5071972;28;20187;-65
2022/06/05 06:24:30;;;;;;;11.23;10.17;;;18.30;95.60;;;;;;5067284;28;20186;-65
2022/06/05 06:26:56;;;;;;;11.10;10.10;;;18.40;95.60;;;;;;5044160;28;20198;-66
2022/06/05 06:29:21;;;;;;;11.50;10.30;;;18.40;95.60;;;;;;5047202;28;20206;-66
2022/06/05 06:31:47;;;;;;;10.53;9.53;;;18.50;95.60;;;;;;5047440;28;20202;-65
2022/06/05 06:34:13;;;;;;;11.03;10.03;;;18.60;95.70;;;;;;5059436;28;20209;-65
2022/06/05 06:36:39;;;;;;;11.13;10.13;;;18.60;95.70;;;;;;5074929;28;20186;-65
2022/06/05 06:39:05;;;;;;;12.43;11.17;;;18.70;95.80;;;;;;5067359;28;20182;-66
2022/06/05 06:41:31;;;;;;;11.90;10.73;;;18.80;95.80;;;;;;5069392;28;20185;-65
2022/06/05 06:43:57;;;;;;;12.30;10.87;;;18.90;95.80;;;;;;5069811;28;20230;-65
2022/06/05 06:46:22;;;;;;;10.23;9.13;;;19.00;95.80;;;;;;5036893;28;20198;-65
2022/06/05 06:48:48;;;;;;;10.50;9.60;;;19.10;95.80;;;;;;5050070;28;20189;-65
2022/06/05 06:51:16;;;;;;;11.57;10.57;;;19.20;95.80;;;;;;5050288;28;20194;-66
2022/06/05 06:53:43;;;;;;;11.30;10.30;;;19.20;95.80;;;;;;5064600;28;20214;-65
2022/06/05 06:56:24;;;;;;;10.73;9.83;;;19.30;95.80;;;;;;5063914;28;20242;-65
2022/06/05 06:58:50;;;;;;;9.43;8.60;;;19.40;95.80;;;;;;5060072;28;20227;-65
2022/06/05 07:01:16;;;;;;;10.10;9.20;;;19.50;95.70;;;;;;5066609;28;20189;-65
2022/06/05 07:03:42;;;;;;;10.07;9.27;;;19.60;95.80;;;;;;5067066;28;20323;-62
2022/06/05 07:06:12;;;;;;;9.30;8.50;;;19.80;95.80;;;;;;5081447;28;20198;-63
2022/06/05 07:08:38;;;;;;;10.67;9.67;;;19.80;95.80;;;;;;5065915;28;20225;-63
2022/06/05 07:11:08;;;;;;;9.67;8.63;;;20.00;95.80;;;;;;5072748;28;20192;-64
2022/06/05 07:13:35;;;;;;;9.20;8.40;;;20.00;95.60;;;;;;5070009;28;20218;-63
2022/06/05 07:16:01;;;;;;;9.53;8.63;;;20.10;95.50;;;;;;5067028;28;20182;-64
2022/06/05 07:18:27;;;;;;;9.30;8.50;;;20.20;95.40;;;;;;5049079;28;20194;-64
2022/06/05 07:20:53;;;;;;;8.33;7.70;;;20.30;95.20;;;;;;5064938;28;20193;-63
2022/06/05 07:23:19;;;;;;;8.70;7.80;;;20.40;95.10;;;;;;5057550;28;20213;-64
2022/06/05 07:25:50;;;;;;;8.30;7.53;;;20.50;95.10;;;;;;5057338;28;20264;-64
2022/06/05 07:28:16;;;;;;;7.97;7.17;;;20.60;95.00;;;;;;5070495;28;20185;-64
2022/06/05 07:30:45;;;;;;;8.03;7.23;;;20.70;94.90;;;;;;5069271;28;20236;-64
2022/06/05 07:33:11;;;;;;;6.97;6.33;;;20.70;94.20;;;;;;5059349;28;20229;-64
2022/06/05 07:35:37;;;;;;;6.27;5.77;;;20.80;93.90;;;;;;5056384;28;20211;-64
2022/06/05 07:38:03;;;;;;;6.50;5.90;;;20.80;93.40;;;;;;5055992;28;20253;-64
2022/06/05 07:40:28;;;;;;;6.30;5.70;;;20.90;92.30;;;;;;5053483;28;20190;-64
2022/06/05 07:42:54;;;;;;;6.50;6.00;;;21.00;92.00;;;;;;5012951;28;1167745;-64
2022/06/05 07:45:20;;;;;;;6.23;5.43;;;21.00;91.40;;;;;;5073791;28;20190;-64
2022/06/05 07:47:46;;;;;;;6.97;6.13;;;21.10;91.10;;;;;;5048513;28;20189;-64
2022/06/05 07:50:13;;;;;;;5.67;5.23;;;21.20;91.70;;;;;;5055853;28;20194;-64
2022/06/05 07:55:24;;;;;;;5.93;5.33;;;21.40;91.50;;;;;;5065834;28;20251;-64
2022/06/05 07:57:50;;;;;;;6.03;5.07;;;21.40;91.20;;;;;;5062057;28;20193;-64
2022/06/05 08:00:16;;;;;;;5.50;5.00;;;21.40;90.80;;;;;;5055917;28;20308;-64
2022/06/05 08:02:42;;;;;;;5.57;5.17;;;21.50;90.70;;;;;;5054179;28;20190;-65
2022/06/05 08:05:09;;;;;;;5.47;4.97;;;21.40;90.90;;;;;;5067941;28;20193;-65
2022/06/05 08:07:35;;;;;;;5.87;5.27;;;21.50;91.00;;;;;;5067858;28;20178;-64
2022/06/05 08:10:04;;;;;;;5.40;4.90;;;21.40;91.10;;;;;;5057243;28;20192;-64
2022/06/05 08:12:31;;;;;;;5.90;5.20;;;21.40;89.80;;;;;;5071023;28;20185;-63
2022/06/05 08:14:58;;;;;;;6.33;5.30;;;21.50;89.50;;;;;;5073737;28;20281;-64
2022/06/05 08:17:27;;;;;;;6.50;5.90;;;21.60;89.40;;;;;;5064246;28;20193;-63
2022/06/05 08:19:53;;;;;;;6.40;5.53;;;21.60;89.70;;;;;;5068568;28;20265;-63
2022/06/05 08:22:21;;;;;;;6.90;5.33;;;21.70;89.10;;;;;;5053272;28;20239;-63
2022/06/05 08:24:47;;;;;;;5.40;5.00;;;21.70;88.80;;;;;;5072857;28;20213;-63
2022/06/05 08:27:16;;;;;;;8.27;5.83;;;21.80;88.10;;;;;;5057213;28;20217;-63
2022/06/05 08:29:42;;;;;;;5.80;5.30;;;21.80;88.80;;;;;;5072669;28;20184;-63
2022/06/05 08:32:08;;;;;;;5.70;5.20;;;22.00;88.70;;;;;;5050063;28;20190;-63
2022/06/05 08:34:34;;;;;;;5.20;4.77;;;22.00;87.70;;;;;;5060321;28;20212;-64
2022/06/05 08:42:39;;;;;;;5.07;4.67;;;22.10;87.10;;;;;;5062887;28;20243;-62
2022/06/05 08:45:16;;;;;;;5.30;4.73;;;22.20;86.10;;;;;;5069761;28;20181;-63
2022/06/05 08:47:55;;;;;;;5.57;4.80;;;22.20;87.00;;;;;;5073466;28;20209;-63
2022/06/05 08:50:44;;;;;;;5.17;4.57;;;22.20;87.10;;;;;;5068995;28;20194;-64
2022/06/05 08:53:29;;;;;;;5.27;4.77;;;22.10;86.20;;;;;;5076991;28;20205;-63
2022/06/05 08:55:55;;;;;;;5.10;4.70;;;22.10;87.50;;;;;;5055586;28;20197;-63
2022/06/05 08:58:47;;;;;;;7.23;4.77;;;22.00;87.80;;;;;;5041551;28;20258;-63
2022/06/05 09:01:31;;;;;;;5.07;4.57;;;22.00;86.90;;;;;;5062107;28;20208;-63
2022/06/05 09:04:11;;;;;;;5.20;4.80;;;21.90;87.50;;;;;;5064016;28;20216;-63
2022/06/05 09:06:48;;;;;;;5.10;4.70;;;21.90;87.90;;;;;;5062080;28;20195;-63
2022/06/05 09:09:23;;;;;;;5.73;4.47;;;21.90;87.80;;;;;;5087761;28;20185;-63
2022/06/05 09:11:58;;;;;;;5.33;4.83;;;21.90;87.70;;;;;;5085503;28;20186;-63
2022/06/05 09:14:46;;;;;;;5.83;4.40;;;21.90;86.00;;;;;;5072441;28;20204;-63
2022/06/05 09:17:14;;;;;;;5.50;4.77;;;21.90;86.20;;;;;;5068443;28;20181;-63
2022/06/05 09:19:41;;;;;;;5.13;4.73;;;22.00;87.10;;;;;;5070265;28;20328;-63
2022/06/05 09:22:18;;;;;;;4.77;4.37;;;22.10;87.30;;;;;;5059569;28;20196;-63
2022/06/05 09:25:05;;;;;;;5.00;4.60;;;22.20;83.50;;;;;;5077755;28;20200;-64
2022/06/05 09:28:12;;;;;;;5.57;5.07;;;22.20;84.30;;;;;;5067706;28;20287;-63
2022/06/05 09:31:02;;;;;;;5.80;5.30;;;22.30;84.50;;;;;;5027138;28;20200;-63
2022/06/05 09:33:34;;;;;;;5.50;5.10;;;22.30;85.10;;;;;;5064840;28;20268;-63
2022/06/05 09:36:08;;;;;;;5.87;5.37;;;22.30;85.80;;;;;;5078508;28;20178;-63
2022/06/05 09:38:40;;;;;;;5.33;4.90;;;22.40;85.70;;;;;;5060396;28;20193;-64
2022/06/05 09:41:53;;;;;;;5.40;4.77;;;22.40;86.10;;;;;;5054459;28;20183;-63
2022/06/05 09:44:47;;;;;;;6.50;5.80;;;22.40;84.60;;;;;;5058732;28;20238;-63
2022/06/05 09:47:25;;;;;;;5.47;4.57;;;22.50;84.40;;;;;;5067440;28;20239;-63
2022/06/05 09:49:58;;;;;;;5.00;4.50;;;22.50;84.70;;;;;;5059642;28;20221;-65
2022/06/05 09:52:29;;;;;;;5.10;4.40;;;22.50;84.60;;;;;;5059116;28;20214;-65
2022/06/05 09:55:09;;;;;;;5.77;5.27;;;22.50;83.30;;;;;;5068493;28;20182;-65
2022/06/05 10:00:33;;;;;;;5.23;4.70;;;22.50;85.10;;;;;;5063951;28;20221;-63
2022/06/05 10:03:09;;;;;;;5.63;4.83;;;22.50;85.70;;;;;;5060760;28;20209;-64
2022/06/05 10:05:40;;;;;;;6.87;6.10;;;22.50;84.80;;;;;;5068745;28;20193;-64
2022/06/05 10:08:24;;;;;;;6.57;5.63;;;22.50;84.70;;;;;;5071172;28;20189;-64
2022/06/05 10:10:56;;;;;;;7.20;6.33;;;22.50;84.80;;;;;;5070092;28;20181;-64
2022/06/05 10:13:31;;;;;;;5.23;4.80;;;22.50;84.30;;;;;;5080905;28;20241;-64
2022/06/05 10:16:05;;;;;;;5.23;4.73;;;22.50;82.30;;;;;;5060358;28;20181;-63
2022/06/05 10:18:36;;;;;;;6.10;5.13;;;22.50;82.60;;;;;;5061550;28;20178;-64
2022/06/05 10:21:08;;;;;;;8.03;5.50;;;22.40;79.50;;;;;;5072356;28;20185;-64
2022/06/05 10:23:43;;;;;;;5.63;5.17;;;22.40;82.20;;;;;;5071796;28;20193;-64
2022/06/05 10:26:18;;;;;;;5.77;5.37;;;22.50;82.00;;;;;;5070237;28;20182;-64
2022/06/05 10:28:46;;;;;;;5.93;4.80;;;22.50;83.10;;;;;;5070324;28;20196;-64
2022/06/05 10:31:27;;;;;;;6.73;5.30;;;22.50;84.20;;;;;;5060925;28;20190;-64
2022/06/05 10:34:22;;;;;;;6.43;5.83;;;22.50;84.70;;;;;;5059526;28;20210;-64
2022/06/05 10:37:20;;;;;;;5.60;5.10;;;22.50;83.20;;;;;;5064226;28;20182;-64
2022/06/05 10:40:13;;;;;;;6.03;5.47;;;22.50;83.70;;;;;;5072042;28;20184;-64
2022/06/05 10:43:01;;;;;;;5.97;5.47;;;22.50;84.60;;;;;;5065624;28;20218;-63
2022/06/05 10:45:54;;;;;;;5.50;5.00;;;22.50;84.40;;;;;;5062111;28;20183;-63
2022/06/05 10:48:38;;;;;;;6.80;5.60;;;22.60;84.30;;;;;;5072395;28;20194;-64
2022/06/05 10:51:33;;;;;;;6.60;5.40;;;22.60;84.50;;;;;;5071231;28;20259;-64
2022/06/05 10:54:17;;;;;;;6.17;5.67;;;22.60;84.30;;;;;;5057191;28;20198;-64
2022/06/05 10:57:11;;;;;;;6.37;5.77;;;22.70;85.00;;;;;;5062108;28;20201;-64
2022/06/05 11:00:03;;;;;;;7.40;5.90;;;22.70;85.60;;;;;;5066854;28;20177;-63
2022/06/05 11:02:53;;;;;;;7.13;6.10;;;22.70;85.50;;;;;;5060208;28;20189;-63
2022/06/05 11:05:42;;;;;;;6.00;5.37;;;22.70;85.40;;;;;;5063401;28;20189;-63
2022/06/05 11:08:31;;;;;;;6.57;6.07;;;22.70;84.20;;;;;;5069861;28;20199;-63
2022/06/05 11:14:34;;;;;;;6.60;6.00;;;22.50;84.80;;;;;;5063242;28;20201;-64
2022/06/05 11:17:46;;;;;;;9.27;5.50;;;22.50;85.50;;;;;;5058762;28;20210;-63
2022/06/05 11:20:18;;;;;;;5.43;4.93;;;22.50;84.80;;;;;;5068712;28;20197;-63
2022/06/05 11:22:55;;;;;;;7.13;6.53;;;22.50;84.40;;;;;;5075525;28;20238;-63
2022/06/05 11:25:27;;;;;;;6.27;5.67;;;22.50;84.60;;;;;;5089013;28;20190;-63
2022/06/05 11:27:55;;;;;;;9.13;6.40;;;22.60;85.00;;;;;;5083599;28;20182;-63
2022/06/05 11:30:46;;;;;;;6.40;5.90;;;22.70;85.40;;;;;;5085461;28;20178;-63
2022/06/05 11:33:25;;;;;;;6.40;5.60;;;22.70;84.60;;;;;;5071921;28;20202;-63
2022/06/05 11:36:09;;;;;;;5.87;5.33;;;22.70;84.80;;;;;;5069708;28;20193;-63
2022/06/05 11:39:01;;;;;;;6.83;6.13;;;22.70;84.30;;;;;;5054793;28;20186;-63
2022/06/05 11:41:46;;;;;;;6.10;5.50;;;22.60;84.90;;;;;;5084308;28;20269;-63
2022/06/05 11:44:21;;;;;;;6.83;6.13;;;22.60;85.30;;;;;;5074603;28;20297;-63
2022/06/05 11:47:04;;;;;;;7.17;6.37;;;22.60;85.10;;;;;;5073203;28;20189;-63
2022/06/05 11:49:52;;;;;;;6.83;6.23;;;22.50;85.00;;;;;;5085216;28;20201;-63
2022/06/05 11:52:41;;;;;;;6.57;5.80;;;22.50;85.30;;;;;;5056241;28;20299;-62
2022/06/05 11:55:36;;;;;;;7.13;6.07;;;22.40;85.30;;;;;;5070624;28;21437;-62
2022/06/05 11:58:25;;;;;;;6.20;5.60;;;22.40;85.90;;;;;;5074161;28;20238;-62
2022/06/05 12:00:57;;;;;;;6.67;5.97;;;22.30;85.60;;;;;;5068019;28;20188;-62
2022/06/05 12:03:31;;;;;;;6.30;5.73;;;22.30;85.80;;;;;;5070926;28;20182;-62
2022/06/05 12:06:05;;;;;;;6.33;5.77;;;22.20;85.90;;;;;;5076261;28;20181;-62
2022/06/05 12:08:46;;;;;;;6.20;5.60;;;22.20;86.30;;;;;;5075629;28;20239;-62
2022/06/05 12:11:19;;;;;;;6.70;5.97;;;22.20;86.10;;;;;;5076171;28;20175;-62
2022/06/05 12:14:12;;;;;;;11.23;8.00;;;22.10;86.10;;;;;;5060373;28;20221;-63
2022/06/05 12:16:54;;;;;;;7.80;5.87;;;22.10;86.60;;;;;;5060327;28;20649;-62
2022/06/05 12:19:27;;;;;;;7.67;6.13;;;22.00;86.60;;;;;;5072700;28;20217;-65
2022/06/05 12:22:16;;;;;;;7.17;6.47;;;22.00;87.10;;;;;;5056523;28;20214;-63
2022/06/05 12:24:52;;;;;;;9.33;6.50;;;22.00;87.50;;;;;;5029985;28;20199;-75
2022/06/05 12:27:20;;;;;;;6.93;6.17;;;22.00;87.80;;;;;;5067914;28;20185;-75
2022/06/05 12:30:06;;;;;;;12.10;6.33;;;22.00;87.60;;;;;;5058825;28;20182;-75
2022/06/05 12:32:51;;;;;;;8.37;7.27;;;22.00;87.90;;;;;;5055698;28;20278;-75
2022/06/05 12:35:25;;;;;;;7.27;6.60;;;22.00;88.20;;;;;;5071981;28;20195;-75
2022/06/05 12:38:16;;;;;;;9.57;7.13;;;22.00;88.00;;;;;;5084063;28;20194;-75
2022/06/05 12:40:55;;;;;;;7.57;6.40;;;22.00;87.80;;;;;;5075319;28;20255;-75
2022/06/05 12:43:53;;;;;;;7.43;6.67;;;22.00;88.20;;;;;;5063530;28;20241;-75
2022/06/05 12:46:55;;;;;;;8.40;6.87;;;22.00;87.60;;;;;;5083574;27;20612;-76
2022/06/05 12:50:11;;;;;;;9.47;6.73;;;22.00;87.50;;;;;;5064368;28;20189;-76
2022/06/05 12:52:47;;;;;;;8.10;7.30;;;22.00;87.60;;;;;;4992583;28;20192;-75
2022/06/05 12:55:23;;;;;;;9.00;6.97;;;22.00;87.40;;;;;;4981874;28;20288;-75
2022/06/05 12:57:58;;;;;;;7.60;6.90;;;22.10;87.60;;;;;;5030781;28;20197;-75
2022/06/05 13:00:50;;;;;;;8.40;7.70;;;22.10;87.50;;;;;;5066395;28;20201;-75
2022/06/05 13:03:19;;;;;;;8.93;8.07;;;22.10;86.80;;;;;;5061543;28;20332;-74
2022/06/05 13:06:17;;;;;;;8.13;7.30;;;22.00;86.40;;;;;;5049876;28;20240;-70
2022/06/05 13:08:48;;;;;;;9.10;8.20;;;22.10;87.00;;;;;;5041269;28;20200;-69
2022/06/05 13:11:30;;;;;;;7.70;7.00;;;22.10;87.30;;;;;;5055998;28;20227;-68
2022/06/05 13:14:26;;;;;;;9.63;8.63;;;22.20;87.20;;;;;;5064554;28;20222;-69
2022/06/05 13:16:55;;;;;;;14.00;9.87;;;22.20;87.30;;;;;;5052534;28;20255;-70
2022/06/05 13:19:29;;;;;;;10.20;9.27;;;22.20;87.10;;;;;;5046798;28;20202;-71
2022/06/05 13:22:29;;;;;;;9.57;8.77;;;22.20;87.20;;;;;;5043476;28;20187;-70
2022/06/05 13:25:24;;;;;;;9.23;8.33;;;22.20;87.30;;;;;;5072078;28;20233;-65
2022/06/05 13:28:22;;;;;;;9.83;8.93;;;22.20;86.90;;;;;;5049906;28;20181;-63
2022/06/05 13:31:02;;;;;;;8.73;7.93;;;22.20;86.60;;;;;;5044457;28;20187;-64
2022/06/05 13:33:45;;;;;;;9.93;9.07;;;22.10;86.40;;;;;;5055605;28;20240;-65
2022/06/05 13:36:38;;;;;;;10.03;9.13;;;22.10;86.60;;;;;;5043090;28;20212;-65
2022/06/05 13:39:22;;;;;;;9.80;8.87;;;22.10;86.70;;;;;;5051517;28;20181;-65